Time;durP1;ratioP1;P1;durP2;ratioP2;P2;SDS_P1;SDS_P2;PMS_P1;PMS_P2;Temp;Humidity;BMP_temperature;BMP_pressure;BME280_temperature;BME280_humidity;BME280_pressure;Samples;Min_cycle;Max_cycle;Signal;HPM_P1;HPM_P2
2021/12/07 00:00:18;;;;;;;;;;;;;;;16.49;46.17;100371.81;4966721;29;19995;-48
2021/12/07 00:02:43;;;;;;;;;;;;;;;16.49;46.17;100371.00;4967013;28;19914;-48
2021/12/07 00:05:09;;;;;;;;;;;;;;;16.47;46.16;100379.19;4965981;29;19941;-47
2021/12/07 00:07:34;;;;;;;;;;;;;;;16.46;46.16;100380.19;4966994;29;19945;-47
2021/12/07 00:09:59;;;;;;;;;;;;;;;16.35;46.35;100355.50;4967176;28;19928;-45
2021/12/07 00:12:28;;;;;;;;;;;;;;;16.44;46.13;100384.91;4966563;29;19922;-47
2021/12/07 00:15:01;;;;;;;;;;;;;;;16.44;46.20;100384.06;4968217;28;19922;-46
2021/12/07 00:17:26;;;;;;;;;;;;;;;16.43;46.13;100383.19;4976322;28;19914;-48
2021/12/07 00:19:51;;;;;;;;;;;;;;;16.42;46.12;100380.69;4966467;28;19925;-48
2021/12/07 00:22:16;;;;;;;;;;;;;;;16.41;46.18;100379.84;4967016;28;19919;-46
2021/12/07 00:24:41;;;;;;;;;;;;;;;16.40;46.17;100388.09;4952450;29;19969;-50
2021/12/07 00:27:07;;;;;;;;;;;;;;;16.41;46.16;100392.44;4965880;29;20446;-46
2021/12/07 00:29:32;;;;;;;;;;;;;;;16.39;46.12;100381.84;4966018;28;19921;-47
2021/12/07 00:32:15;;;;;;;;;;;;;;;16.38;46.13;100379.34;4966472;28;19918;-47
2021/12/07 00:34:57;;;;;;;;;;;;;;;16.38;46.12;100382.88;4955094;29;20447;-46
2021/12/07 00:37:22;;;;;;;;;;;;;;;16.36;46.17;100390.25;4966148;28;19990;-46
2021/12/07 00:39:48;;;;;;;;;;;;;;;16.36;46.17;100397.47;4966571;28;19922;-47
2021/12/07 00:42:13;;;;;;;;;;;;;;;16.35;46.17;100393.06;4948757;29;19930;-48
2021/12/07 00:44:38;;;;;;;;;;;;;;;16.35;46.26;100390.41;4967769;28;19914;-47
2021/12/07 00:47:03;;;;;;;;;;;;;;;16.35;46.06;100398.44;4974072;28;20023;-46
2021/12/07 00:49:28;;;;;;;;;;;;;;;16.32;46.18;100402.31;4965083;29;20009;-46
2021/12/07 00:51:54;;;;;;;;;;;;;;;16.31;46.13;100422.09;4965310;29;19939;-48
2021/12/07 00:54:19;;;;;;;;;;;;;;;16.31;46.19;100422.09;4966359;29;20336;-47
2021/12/07 00:56:44;;;;;;;;;;;;;;;16.30;46.11;100403.47;4964767;29;20389;-48
2021/12/07 00:59:09;;;;;;;;;;;;;;;16.30;46.08;100408.84;4965820;29;20705;-48
2021/12/07 01:01:34;;;;;;;;;;;;;;;16.29;46.05;100391.06;4965196;28;19918;-49
2021/12/07 01:04:00;;;;;;;;;;;;;;;16.28;46.03;100406.31;4966051;29;19918;-47
2021/12/07 01:06:30;;;;;;;;;;;;;;;16.27;46.18;100404.66;4965965;29;20485;-48
2021/12/07 01:25:26;;;;;;;;;;;;;;;16.21;46.09;100406.13;4965660;29;19921;-46
2021/12/07 01:27:54;;;;;;;;;;;;;;;16.22;46.20;100417.69;4965584;29;19918;-45
2021/12/07 01:30:32;;;;;;;;;;;;;;;16.21;46.17;100422.22;4964854;28;19918;-46
2021/12/07 01:52:26;;;;;;;;;;;;;;;16.16;45.96;100453.22;4925210;29;20031;-50
2021/12/07 02:00:27;;;;;;;;;;;;;;;16.14;46.05;100439.13;4910417;29;20016;-51
2021/12/07 02:02:52;;;;;;;;;;;;;;;16.13;46.13;100432.91;4924986;29;19926;-50
2021/12/07 02:05:17;;;;;;;;;;;;;;;16.14;45.86;100436.44;4925025;29;19915;-48
2021/12/07 02:07:42;;;;;;;;;;;;;;;16.12;45.98;100436.59;4956831;29;19921;-47
2021/12/07 02:10:13;;;;;;;;;;;;;;;16.12;45.98;100468.78;4964386;29;19926;-45
2021/12/07 02:12:46;;;;;;;;;;;;;;;16.12;45.99;100474.16;4963700;29;19964;-48
2021/12/07 02:15:12;;;;;;;;;;;;;;;16.12;45.86;100484.03;4973020;28;19918;-49
2021/12/07 02:17:38;;;;;;;;;;;;;;;16.11;45.88;100479.69;4984645;28;19921;-45
2021/12/07 02:20:04;;;;;;;;;;;;;;;16.10;46.00;100473.50;4985098;28;19942;-46
2021/12/07 02:22:29;;;;;;;;;;;;;;;16.12;46.05;100481.38;4983743;28;19914;-46
2021/12/07 02:24:54;;;;;;;;;;;;;;;16.09;46.07;100462.91;4983664;28;19914;-46
2021/12/07 02:27:19;;;;;;;;;;;;;;;16.08;46.01;100470.09;4982851;28;20003;-46
2021/12/07 02:29:44;;;;;;;;;;;;;;;16.08;46.04;100466.59;4964927;28;20254;-46
2021/12/07 02:32:10;;;;;;;;;;;;;;;16.07;45.97;100468.44;4965169;28;19922;-49
2021/12/07 02:34:37;;;;;;;;;;;;;;;16.07;46.03;100478.31;4965517;29;19970;-47
2021/12/07 02:37:02;;;;;;;;;;;;;;;16.07;45.95;100484.53;4963977;29;19930;-44
2021/12/07 02:39:32;;;;;;;;;;;;;;;16.07;46.00;100500.63;4963929;29;19914;-44
2021/12/07 02:41:57;;;;;;;;;;;;;;;16.06;45.92;100498.09;4965176;28;19915;-48
2021/12/07 02:44:22;;;;;;;;;;;;;;;16.06;45.97;100492.75;4967488;28;19969;-44
2021/12/07 02:46:47;;;;;;;;;;;;;;;16.04;46.00;100495.56;4987533;28;19914;-44
2021/12/07 02:49:13;;;;;;;;;;;;;;;16.05;46.04;100496.41;4988259;28;19914;-44
2021/12/07 02:51:38;;;;;;;;;;;;;;;16.05;45.89;100494.56;4988111;28;19949;-49
2021/12/07 02:54:03;;;;;;;;;;;;;;;16.05;46.09;100507.97;4988505;28;20300;-46
2021/12/07 02:56:28;;;;;;;;;;;;;;;16.06;45.94;100506.16;4986671;28;20299;-46
2021/12/07 02:59:01;;;;;;;;;;;;;;;16.06;45.96;100524.94;4987753;28;19914;-47
2021/12/07 03:01:31;;;;;;;;;;;;;;;16.05;46.02;100518.69;4987289;28;19914;-46
2021/12/07 03:04:08;;;;;;;;;;;;;;;16.05;45.96;100513.31;4988169;28;19921;-46
2021/12/07 03:06:48;;;;;;;;;;;;;;;16.05;45.98;100520.53;4987955;28;19914;-50
2021/12/07 03:09:45;;;;;;;;;;;;;;;16.05;46.05;100534.78;4988152;28;20008;-45
2021/12/07 03:26:08;;;;;;;;;;;;;;;16.03;45.91;100541.31;4968016;29;19920;-46
2021/12/07 03:28:35;;;;;;;;;;;;;;;16.02;45.91;100537.81;4966725;29;19914;-45
2021/12/07 03:31:00;;;;;;;;;;;;;;;16.02;45.96;100545.00;4966251;29;19918;-48
2021/12/07 03:33:25;;;;;;;;;;;;;;;16.02;46.00;100553.06;4968272;28;19984;-46
2021/12/07 03:35:51;;;;;;;;;;;;;;;16.01;45.97;100554.88;4967817;28;19918;-50
2021/12/07 03:38:16;;;;;;;;;;;;;;;16.00;45.90;100559.38;4967950;28;19919;-44
2021/12/07 03:40:41;;;;;;;;;;;;;;;16.00;45.97;100551.34;4967661;28;19930;-47
2021/12/07 03:43:06;;;;;;;;;;;;;;;16.00;45.81;100563.91;4967708;29;20436;-48
2021/12/07 03:45:32;;;;;;;;;;;;;;;15.98;45.92;100566.78;4976742;28;19957;-47
2021/12/07 03:47:58;;;;;;;;;;;;;;;15.98;45.99;100566.78;4987096;28;19914;-48
2021/12/07 03:50:23;;;;;;;;;;;;;;;15.96;46.00;100563.38;4985727;28;19918;-48
2021/12/07 03:52:49;;;;;;;;;;;;;;;15.97;46.06;100569.59;4987124;28;19914;-48
2021/12/07 03:55:15;;;;;;;;;;;;;;;15.95;45.84;100572.44;4985940;28;19921;-49
2021/12/07 03:57:40;;;;;;;;;;;;;;;15.94;45.94;100576.13;4985352;28;19914;-46
2021/12/07 04:00:07;;;;;;;;;;;;;;;15.93;45.89;100574.44;4986220;28;19910;-46
2021/12/07 04:02:37;;;;;;;;;;;;;;;15.93;46.05;100566.41;4986821;28;19929;-45
2021/12/07 04:05:08;;;;;;;;;;;;;;;15.93;46.02;100565.56;4987058;28;20593;-46
2021/12/07 04:07:33;;;;;;;;;;;;;;;15.92;45.95;100563.88;4986675;28;19914;-47
2021/12/07 04:09:59;;;;;;;;;;;;;;;15.92;46.00;100575.44;4986777;28;19919;-45
2021/12/07 04:12:24;;;;;;;;;;;;;;;15.92;45.99;100577.28;4980856;28;20422;-46
2021/12/07 04:14:49;;;;;;;;;;;;;;;15.92;45.85;100583.47;4967178;28;19922;-48
2021/12/07 04:17:14;;;;;;;;;;;;;;;15.92;45.91;100588.84;4966892;28;19950;-47
2021/12/07 04:19:39;;;;;;;;;;;;;;;15.92;45.91;100594.19;4967461;28;19945;-44
2021/12/07 04:22:04;;;;;;;;;;;;;;;15.82;45.92;100584.59;4967071;29;20003;-44
2021/12/07 04:24:30;;;;;;;;;;;;;;;15.92;45.84;100606.75;4967023;29;19941;-47
2021/12/07 04:26:55;;;;;;;;;;;;;;;15.92;45.90;100601.41;4966895;29;19922;-47
2021/12/07 04:29:20;;;;;;;;;;;;;;;15.92;45.84;100599.56;4966636;29;19922;-44
2021/12/07 04:31:45;;;;;;;;;;;;;;;15.92;45.80;100606.75;4965011;29;19929;-44
2021/12/07 04:34:11;;;;;;;;;;;;;;;15.92;45.97;100612.13;4967059;28;19925;-45
2021/12/07 04:36:36;;;;;;;;;;;;;;;15.92;45.88;100612.13;4965447;28;19922;-47
2021/12/07 04:39:01;;;;;;;;;;;;;;;15.92;45.86;100602.22;4966728;29;19914;-49
2021/12/07 04:41:32;;;;;;;;;;;;;;;15.92;45.90;100612.13;4966484;28;19921;-50
2021/12/07 04:43:57;;;;;;;;;;;;;;;15.90;45.83;100614.97;4966658;28;19918;-52
2021/12/07 04:46:32;;;;;;;;;;;;;;;15.90;45.83;100617.66;4968263;28;19924;-49
2021/12/07 04:49:54;;;;;;;;;;;;;;;15.90;45.90;100622.19;4967233;28;19914;-47
2021/12/07 04:59:56;;;;;;;;;;;;;;;15.90;45.89;100631.06;4965791;29;19948;-47
2021/12/07 05:02:21;;;;;;;;;;;;;;;15.90;45.93;100623.00;4966228;28;19962;-44
2021/12/07 05:04:46;;;;;;;;;;;;;;;15.90;45.97;100620.34;4966529;29;19918;-44
2021/12/07 05:07:21;;;;;;;;;;;;;;;15.90;45.87;100617.66;4966071;28;19921;-46
2021/12/07 05:14:38;;;;;;;;;;;;;;;15.90;45.92;100639.09;4967082;28;19918;-47
2021/12/07 05:25:36;;;;;;;;;;;;;;;15.90;45.87;100644.47;4966169;29;19941;-47
2021/12/07 05:38:57;;;;;;;;;;;;;;;15.92;45.80;100679.16;4974010;28;19992;-48
2021/12/07 05:41:22;;;;;;;;;;;;;;;15.92;45.82;100688.03;4969634;28;20319;-49
2021/12/07 05:43:48;;;;;;;;;;;;;;;15.91;45.66;100694.41;4965393;28;19918;-46
2021/12/07 05:46:13;;;;;;;;;;;;;;;15.90;45.79;100702.59;4964889;28;19921;-44
2021/12/07 05:48:38;;;;;;;;;;;;;;;15.91;45.91;100699.75;4968055;28;19915;-44
2021/12/07 05:51:03;;;;;;;;;;;;;;;15.91;45.92;100704.28;4965481;28;19918;-44
2021/12/07 05:53:29;;;;;;;;;;;;;;;15.91;45.92;100689.03;4967290;28;19991;-46
2021/12/07 05:55:54;;;;;;;;;;;;;;;15.92;45.88;100700.59;4966466;28;19965;-46
2021/12/07 05:58:19;;;;;;;;;;;;;;;15.91;46.04;100699.75;4965323;28;19942;-45
2021/12/07 06:00:46;;;;;;;;;;;;;;;15.91;46.04;100710.50;4964886;28;19958;-44
2021/12/07 06:03:12;;;;;;;;;;;;;;;15.92;46.09;100725.56;4965767;28;19993;-45
2021/12/07 06:05:37;;;;;;;;;;;;;;;15.93;46.15;100715.72;4965825;28;19914;-47
2021/12/07 06:08:03;;;;;;;;;;;;;;;15.94;46.21;100718.22;4967471;28;19926;-47
2021/12/07 06:10:28;;;;;;;;;;;;;;;15.95;46.11;100701.13;4967498;28;20311;-47
2021/12/07 06:12:53;;;;;;;;;;;;;;;15.96;46.22;100710.84;4974013;28;19915;-44
2021/12/07 06:15:21;;;;;;;;;;;;;;;15.98;46.34;100724.97;4964924;28;19985;-47
2021/12/07 06:17:46;;;;;;;;;;;;;;;15.98;46.29;100727.66;4968187;28;19950;-47
2021/12/07 06:20:11;;;;;;;;;;;;;;;16.00;46.33;100724.81;4967515;28;19926;-45
2021/12/07 06:22:36;;;;;;;;;;;;;;;16.01;46.41;100713.06;4971805;28;19921;-44
2021/12/07 06:25:02;;;;;;;;;;;;;;;16.02;46.44;100711.28;4968106;28;19969;-46
2021/12/07 06:27:27;;;;;;;;;;;;;;;16.02;46.44;100717.47;4968636;28;19949;-47
2021/12/07 06:29:52;;;;;;;;;;;;;;;16.04;46.46;100726.19;4970872;28;19957;-48
2021/12/07 06:32:17;;;;;;;;;;;;;;;16.05;46.57;100729.72;4971466;28;19918;-49
2021/12/07 06:34:43;;;;;;;;;;;;;;;16.06;46.55;100728.75;4969300;28;19923;-46
2021/12/07 06:37:08;;;;;;;;;;;;;;;16.06;46.46;100728.75;4957644;29;19937;-47
2021/12/07 06:39:33;;;;;;;;;;;;;;;16.07;46.51;100733.09;4961724;28;19919;-46
2021/12/07 06:41:59;;;;;;;;;;;;;;;16.07;46.50;100744.66;4958801;28;19925;-48
2021/12/07 06:44:24;;;;;;;;;;;;;;;16.08;46.57;100754.38;4957540;28;19914;-46
2021/12/07 06:46:50;;;;;;;;;;;;;;;16.09;46.63;100749.84;4967568;28;19918;-46
2021/12/07 06:49:15;;;;;;;;;;;;;;;16.08;46.61;100751.69;4957055;29;19950;-48
2021/12/07 06:51:41;;;;;;;;;;;;;;;16.09;46.63;100756.06;4970470;28;20124;-44
2021/12/07 06:54:06;;;;;;;;;;;;;;;16.10;46.61;100757.78;4971419;28;19914;-47
2021/12/07 06:56:31;;;;;;;;;;;;;;;16.10;46.58;100755.09;4968660;29;19938;-49
2021/12/07 06:58:56;;;;;;;;;;;;;;;16.10;46.72;100765.81;4968168;28;19914;-47
2021/12/07 07:01:22;;;;;;;;;;;;;;;16.11;46.53;100774.69;4967505;28;19923;-45
2021/12/07 07:03:47;;;;;;;;;;;;;;;16.12;46.54;100763.81;4968317;28;19914;-45
2021/12/07 07:06:12;;;;;;;;;;;;;;;16.13;46.61;100770.00;4968666;28;19961;-44
2021/12/07 07:08:38;;;;;;;;;;;;;;;16.13;46.63;100768.16;4968334;28;19921;-47
2021/12/07 07:11:03;;;;;;;;;;;;;;;16.14;46.56;100760.97;4968289;29;19978;-50
2021/12/07 07:13:29;;;;;;;;;;;;;;;16.14;46.46;100766.31;4967794;28;19953;-47
2021/12/07 07:15:54;;;;;;;;;;;;;;;16.13;46.46;100772.69;4967737;28;19922;-47
2021/12/07 07:18:19;;;;;;;;;;;;;;;16.13;46.51;100764.66;4968062;28;19925;-46
2021/12/07 07:20:44;;;;;;;;;;;;;;;16.15;46.50;100763.50;4973330;28;19974;-46
2021/12/07 07:23:09;;;;;;;;;;;;;;;16.18;46.49;100770.38;4968323;29;19942;-49
2021/12/07 07:25:34;;;;;;;;;;;;;;;16.21;46.40;100765.56;4967806;28;19915;-47
2021/12/07 07:28:00;;;;;;;;;;;;;;;16.24;46.37;100765.25;4967609;28;19918;-47
2021/12/07 07:30:25;;;;;;;;;;;;;;;16.28;46.31;100767.66;4966616;28;19969;-45
2021/12/07 07:32:51;;;;;;;;;;;;;;;16.32;46.18;100766.34;4967945;28;20362;-46
2021/12/07 07:35:16;;;;;;;;;;;;;;;16.35;46.12;100766.84;4967123;28;19915;-46
2021/12/07 07:37:42;;;;;;;;;;;;;;;16.37;45.92;100772.06;4979130;28;19930;-49
2021/12/07 07:40:09;;;;;;;;;;;;;;;16.40;45.83;100774.47;4987290;28;19953;-49
2021/12/07 07:42:34;;;;;;;;;;;;;;;16.42;45.86;100775.13;4986809;28;19914;-45
2021/12/07 07:44:59;;;;;;;;;;;;;;;16.43;45.82;100772.28;4986948;28;19914;-47
2021/12/07 07:47:24;;;;;;;;;;;;;;;16.45;45.70;100780.19;4986906;28;19921;-46
2021/12/07 07:49:49;;;;;;;;;;;;;;;16.45;45.61;100778.34;4986955;28;19918;-49
2021/12/07 07:52:15;;;;;;;;;;;;;;;16.47;45.55;100776.34;4987368;28;19977;-48
2021/12/07 07:54:40;;;;;;;;;;;;;;;16.49;45.39;100786.94;4987196;28;19921;-49
2021/12/07 07:57:05;;;;;;;;;;;;;;;16.50;45.41;100784.09;4987169;28;20283;-47
2021/12/07 07:59:30;;;;;;;;;;;;;;;16.52;45.26;100781.22;4986353;28;19925;-43
2021/12/07 08:01:55;;;;;;;;;;;;;;;16.53;45.28;100774.91;4986612;28;19963;-49
2021/12/07 08:04:21;;;;;;;;;;;;;;;16.55;45.26;100766.69;4987039;28;19914;-49
2021/12/07 08:06:46;;;;;;;;;;;;;;;16.57;45.14;100768.22;4986568;28;19996;-50
2021/12/07 08:09:11;;;;;;;;;;;;;;;16.58;45.09;100771.75;4979092;28;19922;-47
2021/12/07 08:11:36;;;;;;;;;;;;;;;16.59;44.93;100776.94;4967418;28;19919;-45
2021/12/07 08:14:02;;;;;;;;;;;;;;;16.60;44.96;100778.63;4966896;29;19914;-50
2021/12/07 08:16:27;;;;;;;;;;;;;;;16.63;44.84;100782.84;4966767;28;20303;-49
2021/12/07 08:18:53;;;;;;;;;;;;;;;16.65;44.96;100767.41;4967151;28;20391;-49
2021/12/07 08:21:18;;;;;;;;;;;;;;;16.67;44.85;100768.09;4967388;28;19942;-46
2021/12/07 08:23:43;;;;;;;;;;;;;;;16.68;44.77;100770.63;4967391;28;19957;-46
2021/12/07 08:26:09;;;;;;;;;;;;;;;16.70;44.60;100762.44;4967132;28;19914;-48
2021/12/07 08:28:34;;;;;;;;;;;;;;;16.72;44.66;100765.78;4966670;28;20001;-48
2021/12/07 08:30:59;;;;;;;;;;;;;;;16.76;44.65;100760.97;4966639;28;19919;-48
2021/12/07 08:33:25;;;;;;;;;;;;;;;16.79;44.51;100755.31;4967152;28;19915;-52
2021/12/07 08:35:50;;;;;;;;;;;;;;;16.82;44.48;100763.88;4966940;29;19989;-48
2021/12/07 08:38:15;;;;;;;;;;;;;;;16.96;44.38;100773.19;4984257;28;19922;-46
2021/12/07 08:40:41;;;;;;;;;;;;;;;17.11;43.93;100771.59;4986004;28;19913;-49
2021/12/07 08:43:07;;;;;;;;;;;;;;;17.24;43.75;100763.91;4985756;28;19937;-45
2021/12/07 08:45:32;;;;;;;;;;;;;;;17.39;43.53;100768.69;4985309;28;19965;-50
2021/12/07 08:47:59;;;;;;;;;;;;;;;17.55;43.20;100776.00;4986181;28;19914;-50
2021/12/07 08:50:25;;;;;;;;;;;;;;;17.65;42.84;100776.69;4986016;28;19918;-51
2021/12/07 08:52:51;;;;;;;;;;;;;;;17.73;42.50;100787.47;4985894;28;19924;-50
2021/12/07 09:00:27;;;;;;;;;;;;;;;17.63;42.52;100795.69;4984876;28;19913;-49
2021/12/07 09:02:53;;;;;;;;;;;;;;;17.58;42.43;100795.31;4985718;28;19918;-49
2021/12/07 09:05:18;;;;;;;;;;;;;;;17.53;42.58;100805.72;4986040;28;19936;-48
2021/12/07 09:07:43;;;;;;;;;;;;;;;17.49;42.73;100798.97;4985181;28;19945;-45
2021/12/07 09:10:09;;;;;;;;;;;;;;;17.45;42.68;100805.66;4985611;28;19921;-46
2021/12/07 09:12:34;;;;;;;;;;;;;;;17.43;42.91;100813.91;4978598;28;19915;-47
2021/12/07 09:14:59;;;;;;;;;;;;;;;17.42;42.74;100808.69;4965773;28;19914;-51
2021/12/07 09:17:24;;;;;;;;;;;;;;;17.40;42.78;100814.22;4966035;29;19915;-47
2021/12/07 09:19:49;;;;;;;;;;;;;;;17.40;42.68;100811.53;4966377;28;19925;-50
2021/12/07 09:22:15;;;;;;;;;;;;;;;17.38;42.68;100805.50;4966102;28;19914;-47
2021/12/07 09:24:40;;;;;;;;;;;;;;;17.37;42.73;100800.25;4966164;28;19938;-47
2021/12/07 09:27:05;;;;;;;;;;;;;;;17.36;42.77;100803.94;4966027;28;19914;-46
2021/12/07 09:29:31;;;;;;;;;;;;;;;17.34;42.76;100805.97;4965320;28;19978;-42
2021/12/07 09:31:56;;;;;;;;;;;;;;;17.33;42.74;100802.44;4965925;29;19942;-48
2021/12/07 09:34:21;;;;;;;;;;;;;;;17.32;42.85;100800.75;4965680;28;19914;-49
2021/12/07 09:36:46;;;;;;;;;;;;;;;17.32;42.69;100813.34;4973370;28;19982;-47
2021/12/07 09:39:14;;;;;;;;;;;;;;;17.30;43.01;100809.97;4985440;28;19914;-46
2021/12/07 09:41:39;;;;;;;;;;;;;;;17.29;42.98;100810.97;4985131;28;19921;-48
2021/12/07 09:44:05;;;;;;;;;;;;;;;17.28;42.90;100807.44;4985095;28;19914;-49
2021/12/07 09:46:30;;;;;;;;;;;;;;;17.27;43.08;100804.91;4984392;28;19949;-51
2021/12/07 09:48:55;;;;;;;;;;;;;;;17.26;43.08;100814.00;4985224;28;19914;-47
2021/12/07 09:51:21;;;;;;;;;;;;;;;17.24;43.14;100812.28;4985181;28;20272;-49
2021/12/07 09:53:47;;;;;;;;;;;;;;;17.23;43.00;100815.97;4984538;28;19914;-46
2021/12/07 09:56:12;;;;;;;;;;;;;;;17.23;42.97;100813.28;4983743;28;19921;-48
2021/12/07 09:58:38;;;;;;;;;;;;;;;17.23;42.95;100807.09;4984446;28;19914;-49
2021/12/07 10:01:04;;;;;;;;;;;;;;;17.22;43.07;100822.38;4976044;28;19926;-48
2021/12/07 10:03:29;;;;;;;;;;;;;;;17.22;43.02;100819.69;4965579;28;19914;-50
2021/12/07 10:05:55;;;;;;;;;;;;;;;17.23;43.03;100831.25;4965712;29;19920;-48
2021/12/07 10:08:20;;;;;;;;;;;;;;;17.23;43.11;100833.94;4965704;28;19921;-45
2021/12/07 10:10:47;;;;;;;;;;;;;;;17.25;43.00;100821.22;4965533;29;19970;-50
2021/12/07 10:13:13;;;;;;;;;;;;;;;17.24;43.09;100827.56;4965213;28;20053;-48
2021/12/07 10:15:39;;;;;;;;;;;;;;;17.26;43.01;100827.44;4965036;29;19920;-50
2021/12/07 10:18:06;;;;;;;;;;;;;;;17.26;43.05;100822.06;4965450;28;19914;-49
2021/12/07 10:20:41;;;;;;;;;;;;;;;17.26;43.02;100820.19;4965610;28;20368;-48
2021/12/07 10:23:16;;;;;;;;;;;;;;;17.26;42.93;100814.00;4965647;29;19921;-49
2021/12/07 10:25:46;;;;;;;;;;;;;;;17.27;42.98;100813.81;4965596;28;20336;-47
2021/12/07 10:28:32;;;;;;;;;;;;;;;17.27;42.93;100812.97;4965031;28;19922;-45
2021/12/07 10:31:01;;;;;;;;;;;;;;;17.28;42.99;100820.88;4972460;28;19933;-47
2021/12/07 10:33:28;;;;;;;;;;;;;;;17.28;43.17;100818.19;4984958;28;19921;-48
2021/12/07 10:35:55;;;;;;;;;;;;;;;17.28;43.01;100807.44;4970099;28;19974;-48
2021/12/07 10:38:20;;;;;;;;;;;;;;;17.29;43.03;100808.28;4964031;29;19964;-45
2021/12/07 10:40:56;;;;;;;;;;;;;;;17.30;43.13;100808.13;4965349;29;20066;-47
2021/12/07 10:43:39;;;;;;;;;;;;;;;17.31;43.15;100811.66;4964821;28;20323;-50
2021/12/07 10:46:23;;;;;;;;;;;;;;;17.32;43.12;100803.44;4964400;28;19938;-45
2021/12/07 10:48:48;;;;;;;;;;;;;;;17.33;43.04;100801.56;4965268;28;19977;-46
2021/12/07 10:51:13;;;;;;;;;;;;;;;17.33;43.09;100789.00;4965225;28;20368;-48
2021/12/07 10:53:39;;;;;;;;;;;;;;;17.34;43.10;100790.69;4965258;28;19922;-47
2021/12/07 10:56:04;;;;;;;;;;;;;;;17.36;43.07;100788.66;4965076;29;19915;-46
2021/12/07 10:58:30;;;;;;;;;;;;;;;17.37;42.90;100787.66;4964897;28;20378;-49
2021/12/07 11:00:55;;;;;;;;;;;;;;;17.39;42.75;100792.88;4962759;28;19926;-50
2021/12/07 11:03:21;;;;;;;;;;;;;;;17.39;42.91;100784.81;4965205;28;19921;-48
2021/12/07 11:05:50;;;;;;;;;;;;;;;17.41;42.85;100786.34;4967954;28;19914;-45
2021/12/07 11:08:18;;;;;;;;;;;;;;;17.42;42.80;100788.03;4968469;28;19922;-49
2021/12/07 11:10:46;;;;;;;;;;;;;;;17.44;42.73;100780.63;4968431;28;19973;-47
2021/12/07 11:13:17;;;;;;;;;;;;;;;17.45;42.85;100774.25;4968209;28;19915;-46
2021/12/07 11:15:49;;;;;;;;;;;;;;;17.47;42.89;100774.13;4966578;29;19918;-47
2021/12/07 11:18:15;;;;;;;;;;;;;;;17.50;42.86;100768.41;4968418;28;19997;-48
2021/12/07 11:20:40;;;;;;;;;;;;;;;17.51;42.65;100764.72;4968498;28;20298;-47
2021/12/07 11:23:13;;;;;;;;;;;;;;;17.53;42.85;100767.22;4968193;29;19921;-46
2021/12/07 11:29:39;;;;;;;;;;;;;;;17.52;42.58;100761.03;4968248;28;19938;-46
2021/12/07 11:31:12;;;;;;;;;;;;;;;17.54;42.64;100744.72;4974312;28;19950;-47
2021/12/07 11:33:38;;;;;;;;;;;;;;;17.54;42.78;100750.94;4967946;28;19922;-49
2021/12/07 11:36:32;;;;;;;;;;;;;;;17.55;42.52;100752.63;4967489;29;19914;-49
2021/12/07 11:38:57;;;;;;;;;;;;;;;17.56;42.82;100750.78;4955021;28;19914;-50
2021/12/07 11:41:27;;;;;;;;;;;;;;;17.57;42.70;100747.91;4968011;28;19951;-49
2021/12/07 11:43:55;;;;;;;;;;;;;;;17.59;42.60;100756.69;4966823;29;21387;-49
2021/12/07 11:46:21;;;;;;;;;;;;;;;17.60;42.77;100746.75;4967409;28;19915;-44
2021/12/07 11:48:47;;;;;;;;;;;;;;;17.62;42.67;100747.44;4967817;28;20275;-49
2021/12/07 11:51:12;;;;;;;;;;;;;;;17.63;42.68;100744.59;4968132;28;19919;-48
2021/12/07 11:53:37;;;;;;;;;;;;;;;17.65;42.47;100736.34;4968072;28;19914;-49
2021/12/07 11:56:02;;;;;;;;;;;;;;;17.66;42.57;100741.56;4967665;28;19919;-48
2021/12/07 11:58:28;;;;;;;;;;;;;;;17.67;42.52;100734.31;4967229;28;19914;-48
2021/12/07 12:00:54;;;;;;;;;;;;;;;17.69;42.39;100741.25;4976369;28;19957;-48
2021/12/07 12:03:22;;;;;;;;;;;;;;;17.71;42.39;100731.19;4976444;28;19919;-47
2021/12/07 12:05:47;;;;;;;;;;;;;;;17.72;42.64;100726.63;4967853;28;19925;-46
2021/12/07 12:08:14;;;;;;;;;;;;;;;17.74;42.54;100735.41;4967355;28;19962;-50
2021/12/07 12:10:41;;;;;;;;;;;;;;;17.75;42.36;100737.06;4967319;28;19962;-49
2021/12/07 12:13:17;;;;;;;;;;;;;;;17.77;42.45;100726.16;4965848;29;19973;-48
2021/12/07 12:15:46;;;;;;;;;;;;;;;17.79;42.51;100711.53;4965095;28;19912;-47
2021/12/07 12:18:14;;;;;;;;;;;;;;;17.81;42.34;100709.53;4967127;28;20009;-50
2021/12/07 12:20:47;;;;;;;;;;;;;;;17.83;42.43;100709.34;4967328;28;19915;-48
2021/12/07 12:23:21;;;;;;;;;;;;;;;17.86;42.60;100709.03;4966080;29;19914;-48
2021/12/07 12:25:56;;;;;;;;;;;;;;;17.87;42.35;100699.94;4967125;28;19914;-45
2021/12/07 12:28:26;;;;;;;;;;;;;;;17.89;42.34;100698.78;4966690;28;19962;-50
2021/12/07 12:30:51;;;;;;;;;;;;;;;17.90;42.48;100691.56;4966508;28;19986;-45
2021/12/07 12:33:16;;;;;;;;;;;;;;;17.91;42.42;100687.84;4967030;28;19918;-50
2021/12/07 12:35:43;;;;;;;;;;;;;;;17.92;42.19;100686.84;4967000;29;19915;-49
2021/12/07 12:38:15;;;;;;;;;;;;;;;17.93;42.37;100680.47;4966776;28;19975;-47
2021/12/07 12:40:40;;;;;;;;;;;;;;;17.94;42.44;100668.69;4966767;28;19918;-47
2021/12/07 12:43:05;;;;;;;;;;;;;;;17.95;42.24;100670.38;4965243;28;20399;-47
2021/12/07 12:45:31;;;;;;;;;;;;;;;17.96;42.22;100662.13;4966090;29;19918;-48
2021/12/07 12:48:03;;;;;;;;;;;;;;;17.98;42.31;100649.34;4966697;28;19954;-47
2021/12/07 12:50:31;;;;;;;;;;;;;;;18.01;42.34;100641.94;4966752;29;19954;-50
2021/12/07 12:52:58;;;;;;;;;;;;;;;18.01;42.38;100637.44;4966804;28;20307;-48
2021/12/07 12:55:26;;;;;;;;;;;;;;;18.03;42.39;100629.19;4966760;28;19918;-46
2021/12/07 12:57:52;;;;;;;;;;;;;;;18.04;42.27;100634.38;4964943;29;19929;-47
2021/12/07 13:00:17;;;;;;;;;;;;;;;18.06;42.14;100639.63;4966051;28;19934;-49
2021/12/07 13:02:46;;;;;;;;;;;;;;;18.04;42.12;100630.84;4964991;29;19914;-44
2021/12/07 13:05:15;;;;;;;;;;;;;;;18.06;42.26;100626.16;4966537;28;20312;-47
2021/12/07 13:07:40;;;;;;;;;;;;;;;18.05;42.32;100627.16;4966258;28;20332;-48
2021/12/07 13:10:05;;;;;;;;;;;;;;;18.07;42.28;100622.44;4966271;28;20292;-47
2021/12/07 13:12:32;;;;;;;;;;;;;;;18.08;42.05;100618.75;4966252;28;19919;-47
2021/12/07 13:15:02;;;;;;;;;;;;;;;18.08;42.33;100624.13;4965473;28;19921;-46
2021/12/07 13:17:30;;;;;;;;;;;;;;;18.08;42.03;100618.75;4965893;28;19926;-46
2021/12/07 13:20:14;;;;;;;;;;;;;;;18.08;42.19;100619.59;4964959;29;19921;-46
2021/12/07 13:22:45;;;;;;;;;;;;;;;18.08;42.28;100611.50;4966225;29;20372;-44
2021/12/07 13:25:16;;;;;;;;;;;;;;;18.08;42.16;100614.19;4964714;29;19925;-46
2021/12/07 13:28:21;;;;;;;;;;;;;;;18.08;42.29;100610.66;4965968;28;20329;-45
2021/12/07 13:30:45;;;;;;;;;;;;;;;18.08;42.18;100599.91;4976460;28;19926;-47
2021/12/07 13:33:12;;;;;;;;;;;;;;;18.07;42.10;100599.06;4985482;28;19914;-50
2021/12/07 13:35:37;;;;;;;;;;;;;;;18.08;42.37;100594.53;4981010;28;20245;-49
2021/12/07 13:38:13;;;;;;;;;;;;;;;18.09;42.20;100575.53;4965952;28;19929;-45
2021/12/07 13:40:38;;;;;;;;;;;;;;;18.10;42.10;100584.47;4964550;29;19974;-45
2021/12/07 13:43:03;;;;;;;;;;;;;;;18.10;42.29;100587.16;4964393;29;19921;-46
2021/12/07 13:45:28;;;;;;;;;;;;;;;18.10;42.25;100579.91;4965188;28;19922;-49
2021/12/07 13:47:54;;;;;;;;;;;;;;;18.10;42.30;100569.16;4965805;29;19941;-46
2021/12/07 13:50:21;;;;;;;;;;;;;;;18.09;42.22;100561.22;4965962;28;19918;-46
2021/12/07 13:52:48;;;;;;;;;;;;;;;18.09;42.30;100559.38;4965908;28;19914;-50
2021/12/07 13:55:14;;;;;;;;;;;;;;;18.08;42.15;100549.63;4965801;29;19918;-49
2021/12/07 13:57:41;;;;;;;;;;;;;;;18.07;42.26;100545.28;4965703;28;19964;-49
2021/12/07 14:00:09;;;;;;;;;;;;;;;18.06;42.25;100550.84;4971188;28;20386;-51
2021/12/07 14:02:34;;;;;;;;;;;;;;;18.05;42.33;100535.69;4980197;28;19970;-49
2021/12/07 14:05:14;;;;;;;;;;;;;;;18.04;42.38;100531.31;4965879;28;19914;-48
2021/12/07 14:07:39;;;;;;;;;;;;;;;18.01;42.34;100520.91;4965790;28;19918;-49
2021/12/07 14:10:06;;;;;;;;;;;;;;;18.02;42.35;100517.22;4965441;28;19923;-47